Time;durP1;ratioP1;P1;durP2;ratioP2;P2;SDS_P1;SDS_P2;PMS_P1;PMS_P2;Temp;Humidity;BMP_temperature;BMP_pressure;BME280_temperature;BME280_humidity;BME280_pressure;Samples;Min_cycle;Max_cycle;Signal;HPM_P1;HPM_P2
2022/12/16 00:02:35;;;;;;;1.50;0.77;;;9.40;75.90;;;;;;6259802;28;20061;-81
2022/12/16 00:05:36;;;;;;;1.80;1.00;;;9.40;75.20;;;;;;6261705;28;20049;-80
2022/12/16 00:08:39;;;;;;;0.70;0.70;;;9.40;75.20;;;;;;6244791;28;20060;-81
2022/12/16 00:11:39;;;;;;;1.55;0.73;;;9.40;75.20;;;;;;6247411;28;20051;-80
2022/12/16 00:14:40;;;;;;;1.05;0.68;;;9.40;75.20;;;;;;6245692;28;20041;-80
2022/12/16 00:17:41;;;;;;;1.05;0.75;;;9.40;75.20;;;;;;6230108;28;20053;-80
2022/12/16 00:20:47;;;;;;;1.63;0.63;;;9.40;75.10;;;;;;6263603;28;20437;-81
2022/12/16 00:23:48;;;;;;;1.17;0.80;;;9.30;75.00;;;;;;6244723;28;20534;-80
2022/12/16 00:26:50;;;;;;;1.45;0.80;;;9.30;75.20;;;;;;6245382;28;20076;-81
2022/12/16 00:29:50;;;;;;;1.23;0.52;;;9.20;75.20;;;;;;6220237;28;20064;-80
2022/12/16 00:32:51;;;;;;;0.82;0.60;;;9.20;75.20;;;;;;6236213;28;20140;-80
2022/12/16 00:35:53;;;;;;;1.02;0.77;;;9.20;75.30;;;;;;6218045;28;20044;-80
2022/12/16 00:38:54;;;;;;;0.80;0.70;;;9.10;75.30;;;;;;6242379;28;20574;-79
2022/12/16 00:41:55;;;;;;;4.72;0.95;;;9.10;75.50;;;;;;6252854;28;20044;-80
2022/12/16 00:44:56;;;;;;;1.05;0.60;;;9.10;75.40;;;;;;6243252;28;20050;-81
2022/12/16 00:47:57;;;;;;;1.08;0.60;;;9.10;75.40;;;;;;6245231;28;20042;-79
2022/12/16 00:50:58;;;;;;;1.08;0.55;;;9.00;75.40;;;;;;6243999;28;20029;-80
2022/12/16 00:53:59;;;;;;;0.80;0.65;;;9.00;75.50;;;;;;6244227;28;20121;-80
2022/12/16 00:57:00;;;;;;;0.98;0.70;;;9.00;75.60;;;;;;6241762;28;20060;-80
2022/12/16 01:00:03;;;;;;;0.50;0.50;;;8.90;75.50;;;;;;6227790;28;20035;-80
2022/12/16 01:03:04;;;;;;;0.88;0.60;;;8.90;75.50;;;;;;6235384;28;20052;-81
2022/12/16 01:06:13;;;;;;;0.52;0.50;;;8.90;75.50;;;;;;6246367;28;20029;-81
2022/12/16 01:09:14;;;;;;;0.93;0.65;;;8.90;75.60;;;;;;6239582;28;20045;-81
2022/12/16 01:12:15;;;;;;;1.77;0.60;;;8.90;75.50;;;;;;6257176;28;20088;-81
2022/12/16 01:15:17;;;;;;;1.17;0.85;;;8.90;75.60;;;;;;6259354;28;20075;-80
2022/12/16 01:18:18;;;;;;;0.80;0.50;;;8.90;75.70;;;;;;6260538;28;20073;-80
2022/12/16 01:21:19;;;;;;;1.13;0.60;;;8.80;75.60;;;;;;6260077;28;20132;-80
2022/12/16 01:24:20;;;;;;;0.73;0.73;;;8.90;75.70;;;;;;6244225;28;20049;-79
2022/12/16 01:27:21;;;;;;;0.75;0.50;;;8.90;75.70;;;;;;6242186;28;20056;-80
2022/12/16 01:30:22;;;;;;;1.85;0.80;;;8.80;75.60;;;;;;6241159;28;20037;-79
2022/12/16 01:33:23;;;;;;;0.70;0.57;;;8.90;75.70;;;;;;6253854;28;20036;-81
2022/12/16 01:36:25;;;;;;;0.75;0.45;;;8.90;75.70;;;;;;6252629;28;20049;-81
2022/12/16 01:39:29;;;;;;;11.45;0.70;;;8.90;75.70;;;;;;6258534;28;20038;-80
2022/12/16 01:42:32;;;;;;;9.93;0.90;;;8.80;75.40;;;;;;6243677;28;20038;-81
2022/12/16 01:45:34;;;;;;;0.90;0.63;;;8.80;75.40;;;;;;6226202;28;20034;-80
2022/12/16 01:48:57;;;;;;;0.50;0.40;;;8.80;75.50;;;;;;6260446;28;20488;-81
2022/12/16 01:52:01;;;;;;;4.15;0.70;;;8.70;75.60;;;;;;6242622;28;20034;-81
2022/12/16 01:55:10;;;;;;;1.38;0.75;;;8.80;75.70;;;;;;6243975;28;20048;-80
2022/12/16 01:58:17;;;;;;;8.80;0.85;;;8.70;75.70;;;;;;6259108;28;20125;-81
2022/12/16 02:01:18;;;;;;;0.52;0.52;;;8.80;75.80;;;;;;6242713;28;20057;-80
2022/12/16 02:04:19;;;;;;;2.50;0.45;;;8.70;75.70;;;;;;6259084;28;20037;-80
2022/12/16 02:07:20;;;;;;;1.38;0.70;;;8.80;75.80;;;;;;6244417;28;20038;-80
2022/12/16 02:10:31;;;;;;;1.08;0.70;;;8.80;75.70;;;;;;6242424;28;20122;-80
2022/12/16 02:13:32;;;;;;;1.17;0.70;;;8.80;75.80;;;;;;6259489;28;20029;-80
2022/12/16 02:17:08;;;;;;;1.63;0.80;;;8.80;75.70;;;;;;6247740;28;20060;-81
2022/12/16 02:20:21;;;;;;;0.60;0.40;;;8.70;75.70;;;;;;6211301;28;20383;-80
2022/12/16 02:23:41;;;;;;;0.80;0.63;;;8.70;75.60;;;;;;6246277;28;20057;-80
2022/12/16 02:26:54;;;;;;;0.68;0.43;;;8.70;75.60;;;;;;6190513;28;20045;-80
2022/12/16 02:30:32;;;;;;;0.90;0.65;;;8.60;75.50;;;;;;6190842;28;20030;-80
2022/12/16 02:33:57;;;;;;;0.60;0.60;;;8.60;75.60;;;;;;6210835;28;20035;-81
2022/12/16 02:37:01;;;;;;;1.38;0.63;;;8.60;75.60;;;;;;6214051;28;20505;-80
2022/12/16 02:40:11;;;;;;;1.55;0.50;;;8.50;75.50;;;;;;6215637;28;20466;-81
2022/12/16 02:43:32;;;;;;;0.63;0.63;;;8.50;75.60;;;;;;6235510;28;20412;-81
2022/12/16 02:46:41;;;;;;;1.08;0.70;;;8.50;75.70;;;;;;6245205;28;20056;-81
2022/12/16 02:49:47;;;;;;;0.98;0.60;;;8.50;75.70;;;;;;6241882;28;20486;-81
2022/12/16 02:52:49;;;;;;;1.17;0.45;;;8.50;75.80;;;;;;6239040;28;20041;-81
2022/12/16 02:55:50;;;;;;;1.23;0.80;;;8.50;75.80;;;;;;6222904;28;20033;-81
2022/12/16 02:59:12;;;;;;;2.30;0.70;;;8.50;75.80;;;;;;6221781;28;21208;-81
2022/12/16 03:02:16;;;;;;;1.00;0.60;;;8.40;75.70;;;;;;6239348;28;20045;-80
2022/12/16 03:05:33;;;;;;;2.28;0.85;;;8.40;75.90;;;;;;6237339;28;20049;-81
2022/12/16 03:08:39;;;;;;;1.40;0.65;;;8.50;76.00;;;;;;6239997;28;20037;-79
2022/12/16 03:11:43;;;;;;;1.73;0.80;;;8.50;75.80;;;;;;6242848;28;20033;-80
2022/12/16 03:14:47;;;;;;;0.38;0.30;;;8.50;75.80;;;;;;6226694;28;20172;-79
2022/12/16 03:17:49;;;;;;;0.60;0.50;;;8.50;75.80;;;;;;6216505;28;20049;-79
2022/12/16 03:20:57;;;;;;;0.32;0.32;;;8.50;75.80;;;;;;6193997;28;20118;-79
2022/12/16 03:24:02;;;;;;;0.85;0.32;;;8.50;75.80;;;;;;6240820;28;20037;-79
2022/12/16 03:27:20;;;;;;;0.43;0.35;;;8.50;75.80;;;;;;6239425;28;20025;-82
2022/12/16 03:30:27;;;;;;;0.43;0.43;;;8.50;75.80;;;;;;6258046;28;20442;-80
2022/12/16 03:33:36;;;;;;;0.20;0.20;;;8.50;75.80;;;;;;6243148;28;20048;-80
2022/12/16 03:36:40;;;;;;;0.35;0.35;;;8.40;75.70;;;;;;6232335;28;20033;-81
2022/12/16 03:39:47;;;;;;;1.38;0.50;;;8.40;75.70;;;;;;6246411;28;20041;-80
2022/12/16 03:42:51;;;;;;;0.60;0.40;;;8.40;75.80;;;;;;6246977;28;20036;-81
2022/12/16 03:45:56;;;;;;;0.70;0.35;;;8.40;75.90;;;;;;6220865;28;20130;-80
2022/12/16 03:48:57;;;;;;;0.30;0.30;;;8.40;75.90;;;;;;6219366;28;20037;-80
2022/12/16 03:51:58;;;;;;;0.40;0.30;;;8.40;76.10;;;;;;6226909;28;20104;-81
2022/12/16 03:55:00;;;;;;;0.73;0.68;;;8.40;76.00;;;;;;6219255;28;20099;-81
2022/12/16 03:58:01;;;;;;;0.55;0.50;;;8.40;76.10;;;;;;6219821;28;20037;-80
2022/12/16 04:01:02;;;;;;;0.80;0.50;;;8.30;76.00;;;;;;6217384;28;20501;-81
2022/12/16 04:04:03;;;;;;;1.33;0.65;;;8.30;76.00;;;;;;6261392;28;20048;-80
2022/12/16 04:07:19;;;;;;;1.00;0.40;;;8.30;76.00;;;;;;6260979;28;20036;-79
2022/12/16 04:24:17;;;;;;;0.45;0.45;;;8.30;76.10;;;;;;6260289;28;20033;-80
2022/12/16 04:27:24;;;;;;;0.93;0.50;;;8.30;76.10;;;;;;6244788;28;20069;-80
2022/12/16 04:30:27;;;;;;;0.88;0.77;;;8.30;76.10;;;;;;6242767;28;20033;-81
